sensor_id;sensor_type;location;lat;lon;timestamp;temperature;humidity
21439;DHT22;10880;50.302;18.736;2022-09-27T00:01:22;15.00;58.80
21439;DHT22;10880;50.302;18.736;2022-09-27T00:03:52;15.00;58.50
21439;DHT22;10880;50.302;18.736;2022-09-27T00:06:26;15.00;59.70
21439;DHT22;10880;50.302;18.736;2022-09-27T00:08:53;15.00;59.10
21439;DHT22;10880;50.302;18.736;2022-09-27T00:11:26;15.00;59.10
21439;DHT22;10880;50.302;18.736;2022-09-27T00:13:55;15.00;59.10
21439;DHT22;10880;50.302;18.736;2022-09-27T00:16:23;14.90;59.00
21439;DHT22;10880;50.302;18.736;2022-09-27T00:18:50;14.90;58.90
21439;DHT22;10880;50.302;18.736;2022-09-27T00:21:16;14.90;58.50
21439;DHT22;10880;50.302;18.736;2022-09-27T00:23:43;14.90;58.90
21439;DHT22;10880;50.302;18.736;2022-09-27T00:26:12;14.80;58.60
21439;DHT22;10880;50.302;18.736;2022-09-27T00:28:39;14.80;58.90
21439;DHT22;10880;50.302;18.736;2022-09-27T00:31:17;14.80;58.80
21439;DHT22;10880;50.302;18.736;2022-09-27T00:33:47;14.80;58.90
21439;DHT22;10880;50.302;18.736;2022-09-27T00:36:15;14.80;58.90
21439;DHT22;10880;50.302;18.736;2022-09-27T00:38:41;14.70;58.70
21439;DHT22;10880;50.302;18.736;2022-09-27T00:41:24;14.70;58.40
21439;DHT22;10880;50.302;18.736;2022-09-27T00:46:46;14.70;58.40
21439;DHT22;10880;50.302;18.736;2022-09-27T00:49:26;14.70;58.80
21439;DHT22;10880;50.302;18.736;2022-09-27T00:52:01;14.60;58.90
21439;DHT22;10880;50.302;18.736;2022-09-27T00:54:30;14.60;58.80
21439;DHT22;10880;50.302;18.736;2022-09-27T00:56:58;14.60;58.90
21439;DHT22;10880;50.302;18.736;2022-09-27T00:59:29;14.60;58.80
21439;DHT22;10880;50.302;18.736;2022-09-27T01:01:58;14.60;58.90
21439;DHT22;10880;50.302;18.736;2022-09-27T01:04:27;14.50;58.80
21439;DHT22;10880;50.302;18.736;2022-09-27T01:06:55;14.60;58.80
21439;DHT22;10880;50.302;18.736;2022-09-27T01:09:22;14.50;58.50
21439;DHT22;10880;50.302;18.736;2022-09-27T01:11:57;14.50;58.80
21439;DHT22;10880;50.302;18.736;2022-09-27T01:30:25;14.40;58.90
21439;DHT22;10880;50.302;18.736;2022-09-27T01:35:48;14.40;58.90
21439;DHT22;10880;50.302;18.736;2022-09-27T01:43:50;14.30;58.70
21439;DHT22;10880;50.302;18.736;2022-09-27T01:46:26;14.30;58.60
21439;DHT22;10880;50.302;18.736;2022-09-27T01:49:15;14.30;58.70
21439;DHT22;10880;50.302;18.736;2022-09-27T01:51:54;14.20;58.70
21439;DHT22;10880;50.302;18.736;2022-09-27T01:54:26;14.20;58.70
21439;DHT22;10880;50.302;18.736;2022-09-27T01:57:39;14.20;58.70
21439;DHT22;10880;50.302;18.736;2022-09-27T02:00:13;14.20;58.80
21439;DHT22;10880;50.302;18.736;2022-09-27T02:02:47;14.20;58.30
21439;DHT22;10880;50.302;18.736;2022-09-27T02:05:43;14.20;58.80
21439;DHT22;10880;50.302;18.736;2022-09-27T02:11:31;14.10;58.70
21439;DHT22;10880;50.302;18.736;2022-09-27T02:14:19;14.10;58.60
21439;DHT22;10880;50.302;18.736;2022-09-27T02:16:59;14.10;58.50
21439;DHT22;10880;50.302;18.736;2022-09-27T02:22:38;14.10;58.40
21439;DHT22;10880;50.302;18.736;2022-09-27T02:28:31;14.10;58.80
21439;DHT22;10880;50.302;18.736;2022-09-27T02:31:00;14.00;58.80
21439;DHT22;10880;50.302;18.736;2022-09-27T02:33:41;14.00;58.70
21439;DHT22;10880;50.302;18.736;2022-09-27T02:36:10;14.00;58.80
21439;DHT22;10880;50.302;18.736;2022-09-27T02:38:36;14.00;58.60
21439;DHT22;10880;50.302;18.736;2022-09-27T02:41:03;14.00;58.50
21439;DHT22;10880;50.302;18.736;2022-09-27T02:43:31;14.00;58.30
21439;DHT22;10880;50.302;18.736;2022-09-27T02:55:06;13.90;58.50
21439;DHT22;10880;50.302;18.736;2022-09-27T02:57:59;13.90;58.80
21439;DHT22;10880;50.302;18.736;2022-09-27T03:04:24;13.90;59.10
21439;DHT22;10880;50.302;18.736;2022-09-27T03:06:54;13.90;58.60
21439;DHT22;10880;50.302;18.736;2022-09-27T03:09:29;13.90;58.60
21439;DHT22;10880;50.302;18.736;2022-09-27T03:12:04;13.80;58.60
21439;DHT22;10880;50.302;18.736;2022-09-27T03:14:31;13.80;58.20
21439;DHT22;10880;50.302;18.736;2022-09-27T03:17:09;13.80;58.40
21439;DHT22;10880;50.302;18.736;2022-09-27T03:19:59;13.80;58.30
21439;DHT22;10880;50.302;18.736;2022-09-27T03:22:38;13.80;58.30
21439;DHT22;10880;50.302;18.736;2022-09-27T03:25:06;13.80;58.40
21439;DHT22;10880;50.302;18.736;2022-09-27T03:27:33;13.80;58.60
21439;DHT22;10880;50.302;18.736;2022-09-27T03:29:59;13.80;58.20
21439;DHT22;10880;50.302;18.736;2022-09-27T03:32:26;13.80;58.60
21439;DHT22;10880;50.302;18.736;2022-09-27T03:35:13;13.70;58.40
21439;DHT22;10880;50.302;18.736;2022-09-27T03:37:39;13.80;58.10
21439;DHT22;10880;50.302;18.736;2022-09-27T03:40:07;13.70;58.20
21439;DHT22;10880;50.302;18.736;2022-09-27T03:42:33;13.70;58.70
21439;DHT22;10880;50.302;18.736;2022-09-27T03:45:00;13.70;58.20
21439;DHT22;10880;50.302;18.736;2022-09-27T03:47:27;13.70;58.50
21439;DHT22;10880;50.302;18.736;2022-09-27T03:49:53;13.70;58.10
21439;DHT22;10880;50.302;18.736;2022-09-27T03:52:19;13.70;58.10
21439;DHT22;10880;50.302;18.736;2022-09-27T03:54:46;13.70;57.90
21439;DHT22;10880;50.302;18.736;2022-09-27T03:57:13;13.70;58.40
21439;DHT22;10880;50.302;18.736;2022-09-27T03:59:40;13.70;58.30
21439;DHT22;10880;50.302;18.736;2022-09-27T04:02:28;13.70;58.30
21439;DHT22;10880;50.302;18.736;2022-09-27T04:05:14;13.70;58.40
21439;DHT22;10880;50.302;18.736;2022-09-27T04:07:48;13.70;58.50
21439;DHT22;10880;50.302;18.736;2022-09-27T04:10:19;13.70;58.80
21439;DHT22;10880;50.302;18.736;2022-09-27T04:12:46;13.70;58.30
21439;DHT22;10880;50.302;18.736;2022-09-27T04:15:13;13.70;58.30
21439;DHT22;10880;50.302;18.736;2022-09-27T04:17:48;13.70;58.50
21439;DHT22;10880;50.302;18.736;2022-09-27T04:20:34;13.60;58.70
21439;DHT22;10880;50.302;18.736;2022-09-27T04:23:05;13.70;58.70
21439;DHT22;10880;50.302;18.736;2022-09-27T04:25:33;13.60;58.40
21439;DHT22;10880;50.302;18.736;2022-09-27T04:28:06;13.60;58.40
21439;DHT22;10880;50.302;18.736;2022-09-27T04:30:33;13.60;58.40
21439;DHT22;10880;50.302;18.736;2022-09-27T04:33:28;13.60;58.70
21439;DHT22;10880;50.302;18.736;2022-09-27T04:36:25;13.60;58.80
21439;DHT22;10880;50.302;18.736;2022-09-27T04:39:03;13.70;59.00
21439;DHT22;10880;50.302;18.736;2022-09-27T04:41:31;13.70;59.30
21439;DHT22;10880;50.302;18.736;2022-09-27T04:43:59;13.70;59.20
21439;DHT22;10880;50.302;18.736;2022-09-27T04:46:27;13.70;59.30
21439;DHT22;10880;50.302;18.736;2022-09-27T04:48:58;13.70;59.50
21439;DHT22;10880;50.302;18.736;2022-09-27T04:51:25;13.70;59.50
21439;DHT22;10880;50.302;18.736;2022-09-27T04:53:55;13.80;59.40
21439;DHT22;10880;50.302;18.736;2022-09-27T04:56:21;13.80;59.80
21439;DHT22;10880;50.302;18.736;2022-09-27T04:58:48;13.80;59.20
21439;DHT22;10880;50.302;18.736;2022-09-27T05:01:14;13.90;59.30
21439;DHT22;10880;50.302;18.736;2022-09-27T05:04:01;13.90;59.80
21439;DHT22;10880;50.302;18.736;2022-09-27T05:06:28;13.90;59.60
21439;DHT22;10880;50.302;18.736;2022-09-27T05:08:59;14.00;59.90
21439;DHT22;10880;50.302;18.736;2022-09-27T05:11:30;14.00;59.70
21439;DHT22;10880;50.302;18.736;2022-09-27T05:14:15;14.10;59.90
21439;DHT22;10880;50.302;18.736;2022-09-27T05:17:07;14.10;59.70
21439;DHT22;10880;50.302;18.736;2022-09-27T05:19:48;14.10;59.80
21439;DHT22;10880;50.302;18.736;2022-09-27T05:22:19;14.20;59.90
21439;DHT22;10880;50.302;18.736;2022-09-27T05:24:45;14.20;59.70
21439;DHT22;10880;50.302;18.736;2022-09-27T05:27:13;14.20;59.70
21439;DHT22;10880;50.302;18.736;2022-09-27T05:29:44;14.30;60.20
21439;DHT22;10880;50.302;18.736;2022-09-27T05:32:16;14.30;60.00
21439;DHT22;10880;50.302;18.736;2022-09-27T05:34:44;14.30;59.80
21439;DHT22;10880;50.302;18.736;2022-09-27T05:37:11;14.30;59.70
21439;DHT22;10880;50.302;18.736;2022-09-27T05:39:39;14.40;60.10
21439;DHT22;10880;50.302;18.736;2022-09-27T05:42:06;14.40;60.10
21439;DHT22;10880;50.302;18.736;2022-09-27T05:44:35;14.40;60.30
21439;DHT22;10880;50.302;18.736;2022-09-27T05:47:03;14.50;60.40
21439;DHT22;10880;50.302;18.736;2022-09-27T05:49:32;14.50;60.30
21439;DHT22;10880;50.302;18.736;2022-09-27T05:52:00;14.50;60.50
21439;DHT22;10880;50.302;18.736;2022-09-27T05:54:28;14.60;60.30
21439;DHT22;10880;50.302;18.736;2022-09-27T05:56:56;14.60;60.70
21439;DHT22;10880;50.302;18.736;2022-09-27T05:59:44;14.60;60.90
21439;DHT22;10880;50.302;18.736;2022-09-27T06:02:35;14.70;60.80
21439;DHT22;10880;50.302;18.736;2022-09-27T06:05:40;14.70;60.90
21439;DHT22;10880;50.302;18.736;2022-09-27T06:08:34;14.70;60.90
21439;DHT22;10880;50.302;18.736;2022-09-27T06:11:07;14.80;61.30
21439;DHT22;10880;50.302;18.736;2022-09-27T06:13:34;14.80;61.50
21439;DHT22;10880;50.302;18.736;2022-09-27T06:16:06;14.80;61.50
21439;DHT22;10880;50.302;18.736;2022-09-27T06:18:33;14.90;61.50
21439;DHT22;10880;50.302;18.736;2022-09-27T06:21:01;14.90;61.10
21439;DHT22;10880;50.302;18.736;2022-09-27T06:23:29;14.90;61.60
21439;DHT22;10880;50.302;18.736;2022-09-27T06:26:04;15.00;61.70
21439;DHT22;10880;50.302;18.736;2022-09-27T06:28:46;15.00;61.90
21439;DHT22;10880;50.302;18.736;2022-09-27T06:31:13;15.10;61.50
21439;DHT22;10880;50.302;18.736;2022-09-27T06:34:00;15.10;61.70
21439;DHT22;10880;50.302;18.736;2022-09-27T06:36:28;15.20;61.70
21439;DHT22;10880;50.302;18.736;2022-09-27T06:38:54;15.20;61.60
21439;DHT22;10880;50.302;18.736;2022-09-27T06:41:26;15.20;62.50
21439;DHT22;10880;50.302;18.736;2022-09-27T06:44:31;15.30;61.90
21439;DHT22;10880;50.302;18.736;2022-09-27T06:47:17;15.30;61.90
21439;DHT22;10880;50.302;18.736;2022-09-27T06:49:50;15.40;61.90
21439;DHT22;10880;50.302;18.736;2022-09-27T06:52:18;15.50;62.10
21439;DHT22;10880;50.302;18.736;2022-09-27T06:54:44;15.50;62.10
21439;DHT22;10880;50.302;18.736;2022-09-27T06:57:11;15.50;62.00
21439;DHT22;10880;50.302;18.736;2022-09-27T06:59:57;15.60;62.20
21439;DHT22;10880;50.302;18.736;2022-09-27T07:03:01;15.70;62.60
21439;DHT22;10880;50.302;18.736;2022-09-27T07:05:57;15.70;62.50
21439;DHT22;10880;50.302;18.736;2022-09-27T07:08:43;15.70;62.80
21439;DHT22;10880;50.302;18.736;2022-09-27T07:11:10;15.80;62.50
21439;DHT22;10880;50.302;18.736;2022-09-27T07:13:37;15.80;62.40
21439;DHT22;10880;50.302;18.736;2022-09-27T07:16:10;15.90;62.90
21439;DHT22;10880;50.302;18.736;2022-09-27T07:18:39;15.90;63.10
21439;DHT22;10880;50.302;18.736;2022-09-27T07:21:06;15.90;63.10
21439;DHT22;10880;50.302;18.736;2022-09-27T07:23:35;16.00;63.20
21439;DHT22;10880;50.302;18.736;2022-09-27T07:26:03;16.10;63.30
21439;DHT22;10880;50.302;18.736;2022-09-27T07:28:32;16.10;63.30
21439;DHT22;10880;50.302;18.736;2022-09-27T07:30:59;16.20;63.00
21439;DHT22;10880;50.302;18.736;2022-09-27T07:33:28;16.20;63.30
21439;DHT22;10880;50.302;18.736;2022-09-27T07:35:54;16.30;63.50
21439;DHT22;10880;50.302;18.736;2022-09-27T07:38:23;16.30;63.20
21439;DHT22;10880;50.302;18.736;2022-09-27T07:40:50;16.40;63.10
21439;DHT22;10880;50.302;18.736;2022-09-27T07:43:17;16.50;63.30
21439;DHT22;10880;50.302;18.736;2022-09-27T07:45:45;16.50;63.50
21439;DHT22;10880;50.302;18.736;2022-09-27T07:48:29;16.60;63.40
21439;DHT22;10880;50.302;18.736;2022-09-27T07:51:18;16.60;63.40
21439;DHT22;10880;50.302;18.736;2022-09-27T07:53:51;16.70;63.70
21439;DHT22;10880;50.302;18.736;2022-09-27T07:56:38;16.80;63.80
21439;DHT22;10880;50.302;18.736;2022-09-27T07:59:06;16.80;63.60
21439;DHT22;10880;50.302;18.736;2022-09-27T08:01:33;16.90;63.90
21439;DHT22;10880;50.302;18.736;2022-09-27T08:04:01;17.00;63.80
21439;DHT22;10880;50.302;18.736;2022-09-27T08:06:28;17.00;63.60
21439;DHT22;10880;50.302;18.736;2022-09-27T08:08:55;17.10;63.80
21439;DHT22;10880;50.302;18.736;2022-09-27T08:11:24;17.20;63.90
21439;DHT22;10880;50.302;18.736;2022-09-27T08:13:50;17.20;63.40
21439;DHT22;10880;50.302;18.736;2022-09-27T08:16:24;17.30;64.00
21439;DHT22;10880;50.302;18.736;2022-09-27T08:19:09;17.30;63.70
21439;DHT22;10880;50.302;18.736;2022-09-27T08:21:47;17.40;63.80
21439;DHT22;10880;50.302;18.736;2022-09-27T08:24:21;17.50;64.00
21439;DHT22;10880;50.302;18.736;2022-09-27T08:27:06;17.50;63.70
21439;DHT22;10880;50.302;18.736;2022-09-27T08:30:00;17.60;63.60
21439;DHT22;10880;50.302;18.736;2022-09-27T08:32:26;17.60;63.40
21439;DHT22;10880;50.302;18.736;2022-09-27T08:34:54;17.70;63.60
21439;DHT22;10880;50.302;18.736;2022-09-27T08:37:22;17.70;63.00
21439;DHT22;10880;50.302;18.736;2022-09-27T08:39:49;17.50;62.80
21439;DHT22;10880;50.302;18.736;2022-09-27T08:42:42;18.00;62.10
21439;DHT22;10880;50.302;18.736;2022-09-27T08:45:19;17.90;64.00
21439;DHT22;10880;50.302;18.736;2022-09-27T08:47:53;18.00;64.00
21439;DHT22;10880;50.302;18.736;2022-09-27T08:50:27;18.00;63.80
21439;DHT22;10880;50.302;18.736;2022-09-27T08:53:05;18.10;63.80
21439;DHT22;10880;50.302;18.736;2022-09-27T08:58:20;18.20;63.10
21439;DHT22;10880;50.302;18.736;2022-09-27T09:00:57;18.30;63.60
21439;DHT22;10880;50.302;18.736;2022-09-27T09:03:32;18.30;63.40
21439;DHT22;10880;50.302;18.736;2022-09-27T09:30:23;18.70;62.40
21439;DHT22;10880;50.302;18.736;2022-09-27T09:32:40;18.80;62.80
21439;DHT22;10880;50.302;18.736;2022-09-27T09:35:22;18.80;62.80
21439;DHT22;10880;50.302;18.736;2022-09-27T09:37:59;18.80;62.80
21439;DHT22;10880;50.302;18.736;2022-09-27T09:46:40;19.00;62.80
21439;DHT22;10880;50.302;18.736;2022-09-27T09:49:22;19.10;62.70
21439;DHT22;10880;50.302;18.736;2022-09-27T09:52:05;19.10;62.40
21439;DHT22;10880;50.302;18.736;2022-09-27T09:54:59;19.10;62.30
21439;DHT22;10880;50.302;18.736;2022-09-27T09:57:33;19.10;62.30
21439;DHT22;10880;50.302;18.736;2022-09-27T10:00:13;19.20;62.20
21439;DHT22;10880;50.302;18.736;2022-09-27T10:02:45;19.30;62.30
21439;DHT22;10880;50.302;18.736;2022-09-27T10:05:20;19.30;62.30
21439;DHT22;10880;50.302;18.736;2022-09-27T10:07:54;19.30;62.30
21439;DHT22;10880;50.302;18.736;2022-09-27T10:10:22;19.40;62.20
21439;DHT22;10880;50.302;18.736;2022-09-27T10:13:29;19.40;61.90
21439;DHT22;10880;50.302;18.736;2022-09-27T10:16:07;19.50;62.00
21439;DHT22;10880;50.302;18.736;2022-09-27T10:18:37;19.50;61.90
21439;DHT22;10880;50.302;18.736;2022-09-27T10:21:24;19.60;61.90
21439;DHT22;10880;50.302;18.736;2022-09-27T10:24:14;19.60;61.90
21439;DHT22;10880;50.302;18.736;2022-09-27T10:26:58;19.70;61.80
21439;DHT22;10880;50.302;18.736;2022-09-27T10:31:59;19.80;61.00
21439;DHT22;10880;50.302;18.736;2022-09-27T10:34:36;19.80;61.30
21439;DHT22;10880;50.302;18.736;2022-09-27T10:37:12;19.80;61.20
21439;DHT22;10880;50.302;18.736;2022-09-27T10:39:52;19.90;61.30
21439;DHT22;10880;50.302;18.736;2022-09-27T10:42:30;19.90;60.70
21439;DHT22;10880;50.302;18.736;2022-09-27T10:47:57;20.00;61.00
21439;DHT22;10880;50.302;18.736;2022-09-27T10:50:32;20.00;60.70
21439;DHT22;10880;50.302;18.736;2022-09-27T10:53:15;20.10;60.40
21439;DHT22;10880;50.302;18.736;2022-09-27T10:55:50;20.10;60.50
21439;DHT22;10880;50.302;18.736;2022-09-27T10:58:20;20.10;60.30
21439;DHT22;10880;50.302;18.736;2022-09-27T11:01:05;20.10;60.10
21439;DHT22;10880;50.302;18.736;2022-09-27T11:03:48;20.10;59.90
21439;DHT22;10880;50.302;18.736;2022-09-27T11:08:52;20.20;59.50
21439;DHT22;10880;50.302;18.736;2022-09-27T11:11:26;20.20;59.80
21439;DHT22;10880;50.302;18.736;2022-09-27T11:14:02;20.20;59.60
21439;DHT22;10880;50.302;18.736;2022-09-27T11:16:53;20.20;59.70
21439;DHT22;10880;50.302;18.736;2022-09-27T11:19:57;20.30;59.80
21439;DHT22;10880;50.302;18.736;2022-09-27T11:25:51;20.30;59.70
21439;DHT22;10880;50.302;18.736;2022-09-27T11:29:00;20.30;59.70
21439;DHT22;10880;50.302;18.736;2022-09-27T11:32:17;20.40;59.70
21439;DHT22;10880;50.302;18.736;2022-09-27T11:35:24;20.40;59.60
21439;DHT22;10880;50.302;18.736;2022-09-27T11:38:12;20.40;59.60
21439;DHT22;10880;50.302;18.736;2022-09-27T11:41:13;20.40;59.50
21439;DHT22;10880;50.302;18.736;2022-09-27T11:43:55;20.40;59.50
21439;DHT22;10880;50.302;18.736;2022-09-27T11:46:27;20.40;59.50
21439;DHT22;10880;50.302;18.736;2022-09-27T11:57:46;20.40;59.40
21439;DHT22;10880;50.302;18.736;2022-09-27T12:06:02;20.40;59.50
21439;DHT22;10880;50.302;18.736;2022-09-27T12:13:48;20.40;59.60
21439;DHT22;10880;50.302;18.736;2022-09-27T12:16:18;20.40;59.40
21439;DHT22;10880;50.302;18.736;2022-09-27T12:18:47;20.40;59.50
21439;DHT22;10880;50.302;18.736;2022-09-27T12:21:36;20.40;59.50
21439;DHT22;10880;50.302;18.736;2022-09-27T12:24:03;20.40;59.10
21439;DHT22;10880;50.302;18.736;2022-09-27T12:26:39;20.40;59.30
21439;DHT22;10880;50.302;18.736;2022-09-27T12:29:28;20.40;59.80
21439;DHT22;10880;50.302;18.736;2022-09-27T12:35:18;20.40;59.90
21439;DHT22;10880;50.302;18.736;2022-09-27T12:40:33;20.40;60.00
21439;DHT22;10880;50.302;18.736;2022-09-27T12:43:17;20.40;60.70
21439;DHT22;10880;50.302;18.736;2022-09-27T12:49:22;20.20;60.00
21439;DHT22;10880;50.302;18.736;2022-09-27T12:51:56;20.30;60.10
21439;DHT22;10880;50.302;18.736;2022-09-27T12:54:37;20.30;60.00
21439;DHT22;10880;50.302;18.736;2022-09-27T12:57:22;20.30;60.10
21439;DHT22;10880;50.302;18.736;2022-09-27T13:13:53;20.20;59.60
21439;DHT22;10880;50.302;18.736;2022-09-27T13:16:21;20.10;59.90
21439;DHT22;10880;50.302;18.736;2022-09-27T13:18:58;20.20;60.20
21439;DHT22;10880;50.302;18.736;2022-09-27T13:21:57;20.10;60.40
21439;DHT22;10880;50.302;18.736;2022-09-27T13:24:45;20.10;60.00
21439;DHT22;10880;50.302;18.736;2022-09-27T13:27:34;20.10;60.30
21439;DHT22;10880;50.302;18.736;2022-09-27T13:38:31;20.00;60.10
21439;DHT22;10880;50.302;18.736;2022-09-27T13:41:15;20.00;60.50
21439;DHT22;10880;50.302;18.736;2022-09-27T13:44:11;20.00;60.70
21439;DHT22;10880;50.302;18.736;2022-09-27T13:46:49;19.90;60.80
21439;DHT22;10880;50.302;18.736;2022-09-27T13:49:39;19.90;60.70
21439;DHT22;10880;50.302;18.736;2022-09-27T13:52:34;19.90;60.70
21439;DHT22;10880;50.302;18.736;2022-09-27T13:55:45;19.90;60.70
21439;DHT22;10880;50.302;18.736;2022-09-27T14:01:42;19.90;60.40
21439;DHT22;10880;50.302;18.736;2022-09-27T14:04:23;19.80;60.30
21439;DHT22;10880;50.302;18.736;2022-09-27T14:06:55;19.80;61.00
21439;DHT22;10880;50.302;18.736;2022-09-27T14:09:30;19.80;60.10
21439;DHT22;10880;50.302;18.736;2022-09-27T14:12:20;19.70;60.10
21439;DHT22;10880;50.302;18.736;2022-09-27T14:14:50;19.70;60.00
21439;DHT22;10880;50.302;18.736;2022-09-27T14:17:18;19.70;60.00
21439;DHT22;10880;50.302;18.736;2022-09-27T14:19:45;19.60;59.50
21439;DHT22;10880;50.302;18.736;2022-09-27T14:22:17;19.60;59.70
21439;DHT22;10880;50.302;18.736;2022-09-27T14:24:55;19.50;59.90
21439;DHT22;10880;50.302;18.736;2022-09-27T14:27:29;19.50;59.90
21439;DHT22;10880;50.302;18.736;2022-09-27T14:32:48;19.40;59.60
21439;DHT22;10880;50.302;18.736;2022-09-27T14:35:22;19.40;59.70
21439;DHT22;10880;50.302;18.736;2022-09-27T14:38:18;19.40;60.00
21439;DHT22;10880;50.302;18.736;2022-09-27T14:40:58;19.40;60.00
21439;DHT22;10880;50.302;18.736;2022-09-27T14:43:26;19.30;60.00
21439;DHT22;10880;50.302;18.736;2022-09-27T14:45:58;19.30;59.90
21439;DHT22;10880;50.302;18.736;2022-09-27T14:48:36;19.20;59.90
21439;DHT22;10880;50.302;18.736;2022-09-27T14:51:16;19.20;60.10
21439;DHT22;10880;50.302;18.736;2022-09-27T14:53:49;19.20;60.80
21439;DHT22;10880;50.302;18.736;2022-09-27T14:56:27;19.10;60.30
21439;DHT22;10880;50.302;18.736;2022-09-27T14:59:15;19.10;60.20
21439;DHT22;10880;50.302;18.736;2022-09-27T15:01:50;19.10;60.30
21439;DHT22;10880;50.302;18.736;2022-09-27T15:04:21;19.00;60.30
21439;DHT22;10880;50.302;18.736;2022-09-27T15:06:49;19.00;60.30
21439;DHT22;10880;50.302;18.736;2022-09-27T15:09:17;19.00;60.30
21439;DHT22;10880;50.302;18.736;2022-09-27T15:11:47;19.00;60.50
21439;DHT22;10880;50.302;18.736;2022-09-27T15:14:17;19.00;60.60
21439;DHT22;10880;50.302;18.736;2022-09-27T15:16:49;18.90;60.60
21439;DHT22;10880;50.302;18.736;2022-09-27T15:19:25;18.90;60.50
21439;DHT22;10880;50.302;18.736;2022-09-27T15:21:52;18.90;60.80
21439;DHT22;10880;50.302;18.736;2022-09-27T15:24:39;18.90;60.40
21439;DHT22;10880;50.302;18.736;2022-09-27T15:27:17;18.90;60.80
21439;DHT22;10880;50.302;18.736;2022-09-27T15:29:51;18.90;60.90
21439;DHT22;10880;50.302;18.736;2022-09-27T15:32:23;18.90;60.80
21439;DHT22;10880;50.302;18.736;2022-09-27T15:34:50;18.80;60.90
21439;DHT22;10880;50.302;18.736;2022-09-27T15:37:33;18.90;61.00
21439;DHT22;10880;50.302;18.736;2022-09-27T15:40:41;18.80;61.20
21439;DHT22;10880;50.302;18.736;2022-09-27T15:43:31;18.80;61.10
21439;DHT22;10880;50.302;18.736;2022-09-27T15:46:04;18.80;61.20
21439;DHT22;10880;50.302;18.736;2022-09-27T15:48:34;18.80;61.10
21439;DHT22;10880;50.302;18.736;2022-09-27T15:51:39;18.80;59.70
21439;DHT22;10880;50.302;18.736;2022-09-27T15:54:07;18.80;61.40
21439;DHT22;10880;50.302;18.736;2022-09-27T15:56:34;18.80;59.10
21439;DHT22;10880;50.302;18.736;2022-09-27T15:59:02;18.80;59.60
21439;DHT22;10880;50.302;18.736;2022-09-27T16:01:28;18.70;61.20
21439;DHT22;10880;50.302;18.736;2022-09-27T16:03:58;18.70;60.80
21439;DHT22;10880;50.302;18.736;2022-09-27T16:06:26;18.70;61.40
21439;DHT22;10880;50.302;18.736;2022-09-27T16:08:54;18.70;61.40
21439;DHT22;10880;50.302;18.736;2022-09-27T16:11:20;18.70;60.70
21439;DHT22;10880;50.302;18.736;2022-09-27T16:13:46;18.70;60.70
21439;DHT22;10880;50.302;18.736;2022-09-27T16:16:17;18.80;61.30
21439;DHT22;10880;50.302;18.736;2022-09-27T16:18:44;18.70;61.50
21439;DHT22;10880;50.302;18.736;2022-09-27T16:21:11;18.70;61.40
21439;DHT22;10880;50.302;18.736;2022-09-27T16:23:38;18.70;61.10
21439;DHT22;10880;50.302;18.736;2022-09-27T16:26:05;18.70;61.50
21439;DHT22;10880;50.302;18.736;2022-09-27T16:28:33;18.60;61.50
21439;DHT22;10880;50.302;18.736;2022-09-27T16:31:05;18.60;61.30
21439;DHT22;10880;50.302;18.736;2022-09-27T16:33:32;18.60;61.60
21439;DHT22;10880;50.302;18.736;2022-09-27T16:36:04;18.60;61.50
21439;DHT22;10880;50.302;18.736;2022-09-27T16:38:31;18.60;61.70
21439;DHT22;10880;50.302;18.736;2022-09-27T16:41:01;18.60;61.10
21439;DHT22;10880;50.302;18.736;2022-09-27T16:43:29;18.60;61.70
21439;DHT22;10880;50.302;18.736;2022-09-27T16:46:08;18.60;61.60
21439;DHT22;10880;50.302;18.736;2022-09-27T16:48:37;18.50;61.60
21439;DHT22;10880;50.302;18.736;2022-09-27T16:51:24;18.50;62.50
21439;DHT22;10880;50.302;18.736;2022-09-27T16:54:09;18.50;61.70
21439;DHT22;10880;50.302;18.736;2022-09-27T16:56:41;18.50;61.70
21439;DHT22;10880;50.302;18.736;2022-09-27T16:59:08;18.50;61.70
21439;DHT22;10880;50.302;18.736;2022-09-27T17:01:35;18.40;61.70
21439;DHT22;10880;50.302;18.736;2022-09-27T17:04:02;18.40;61.50
21439;DHT22;10880;50.302;18.736;2022-09-27T17:06:30;18.40;61.80
21439;DHT22;10880;50.302;18.736;2022-09-27T17:09:02;18.40;61.70
21439;DHT22;10880;50.302;18.736;2022-09-27T17:11:32;18.40;62.00
21439;DHT22;10880;50.302;18.736;2022-09-27T17:13:59;18.30;61.50
21439;DHT22;10880;50.302;18.736;2022-09-27T17:16:26;18.30;62.00
21439;DHT22;10880;50.302;18.736;2022-09-27T17:18:54;18.10;61.70
21439;DHT22;10880;50.302;18.736;2022-09-27T17:21:21;18.30;62.00
21439;DHT22;10880;50.302;18.736;2022-09-27T17:23:47;18.30;60.20
21439;DHT22;10880;50.302;18.736;2022-09-27T17:26:20;18.30;62.10
21439;DHT22;10880;50.302;18.736;2022-09-27T17:28:48;18.30;62.20
21439;DHT22;10880;50.302;18.736;2022-09-27T17:31:17;18.20;61.50
21439;DHT22;10880;50.302;18.736;2022-09-27T17:33:47;18.20;62.10
21439;DHT22;10880;50.302;18.736;2022-09-27T17:36:19;18.20;61.80
21439;DHT22;10880;50.302;18.736;2022-09-27T17:38:47;18.20;62.10
21439;DHT22;10880;50.302;18.736;2022-09-27T17:41:16;18.20;61.60
21439;DHT22;10880;50.302;18.736;2022-09-27T17:43:44;18.20;62.50
21439;DHT22;10880;50.302;18.736;2022-09-27T17:46:18;18.20;62.50
21439;DHT22;10880;50.302;18.736;2022-09-27T17:48:46;18.20;62.50
21439;DHT22;10880;50.302;18.736;2022-09-27T17:51:33;18.20;62.60
21439;DHT22;10880;50.302;18.736;2022-09-27T17:53:59;18.20;62.60
21439;DHT22;10880;50.302;18.736;2022-09-27T17:56:26;18.20;62.20
21439;DHT22;10880;50.302;18.736;2022-09-27T17:58:54;18.00;62.20
21439;DHT22;10880;50.302;18.736;2022-09-27T18:01:23;18.20;62.30
21439;DHT22;10880;50.302;18.736;2022-09-27T18:03:57;18.20;62.60
21439;DHT22;10880;50.302;18.736;2022-09-27T18:06:25;18.20;62.60
21439;DHT22;10880;50.302;18.736;2022-09-27T18:08:53;18.20;62.60
21439;DHT22;10880;50.302;18.736;2022-09-27T18:11:25;18.20;62.60
21439;DHT22;10880;50.302;18.736;2022-09-27T18:13:57;18.20;62.70
21439;DHT22;10880;50.302;18.736;2022-09-27T18:16:28;18.20;62.60
21439;DHT22;10880;50.302;18.736;2022-09-27T18:18:58;18.20;62.60
21439;DHT22;10880;50.302;18.736;2022-09-27T18:21:25;18.10;62.40
21439;DHT22;10880;50.302;18.736;2022-09-27T18:23:53;18.10;62.70
21439;DHT22;10880;50.302;18.736;2022-09-27T18:26:22;18.10;62.70
21439;DHT22;10880;50.302;18.736;2022-09-27T18:28:51;18.10;62.70
21439;DHT22;10880;50.302;18.736;2022-09-27T18:31:18;18.10;62.80
21439;DHT22;10880;50.302;18.736;2022-09-27T18:33:45;18.10;62.80